createdAt,value
2019-03-25T00:00:09.655Z,3.16
2019-03-25T00:01:09.618Z,3.22
2019-03-25T00:02:09.673Z,3.16
2019-03-25T00:03:09.597Z,3.08
2019-03-25T00:04:09.586Z,3.10
2019-03-25T00:05:09.576Z,3.03
2019-03-25T00:06:09.590Z,2.83
2019-03-25T00:07:09.554Z,2.89
2019-03-25T00:08:09.554Z,2.82
2019-03-25T00:09:09.573Z,2.83
2019-03-25T00:10:09.545Z,2.71
2019-03-25T00:11:09.508Z,2.69
2019-03-25T00:12:09.500Z,2.65
2019-03-25T00:13:09.487Z,2.72
2019-03-25T00:14:09.491Z,2.54
2019-03-25T00:15:09.481Z,2.56
2019-03-25T00:16:09.509Z,2.57
2019-03-25T00:17:09.444Z,2.60
2019-03-25T00:18:09.449Z,2.60
2019-03-25T00:19:09.423Z,2.47
2019-03-25T00:20:09.438Z,2.60
2019-03-25T00:21:09.472Z,2.53
2019-03-25T00:22:09.392Z,2.47
2019-03-25T00:23:09.383Z,2.47
2019-03-25T00:24:09.389Z,2.46
2019-03-25T00:25:09.358Z,2.44
2019-03-25T00:26:09.353Z,2.49
2019-03-25T00:27:09.353Z,2.46
2019-03-25T00:28:09.331Z,2.36
2019-03-25T00:29:09.371Z,2.36
2019-03-25T00:30:09.308Z,2.32
2019-03-25T00:31:09.312Z,2.20
2019-03-25T00:32:09.282Z,2.32
2019-03-25T00:33:09.271Z,2.36
2019-03-25T00:34:09.267Z,2.31
2019-03-25T00:35:09.255Z,2.25
2019-03-25T00:36:09.257Z,2.28
2019-03-25T00:37:09.299Z,2.26
2019-03-25T00:38:09.218Z,2.33
2019-03-25T00:39:09.214Z,2.28
2019-03-25T00:40:09.204Z,2.25
2019-03-25T00:41:09.189Z,2.24
2019-03-25T00:42:09.194Z,2.22
2019-03-25T00:43:09.227Z,2.10
2019-03-25T00:44:09.155Z,2.14
2019-03-25T00:45:09.143Z,2.10
2019-03-25T00:46:09.146Z,2.04
2019-03-25T00:47:09.123Z,2.10
2019-03-25T00:48:09.131Z,2.06
2019-03-25T00:49:09.154Z,2.14
2019-03-25T00:50:09.306Z,2.15
2019-03-25T00:51:09.109Z,2.15
2019-03-25T00:52:09.081Z,2.15
2019-03-25T00:53:09.060Z,2.20
2019-03-25T00:54:09.047Z,2.26
2019-03-25T00:55:09.081Z,2.24
2019-03-25T00:56:09.026Z,2.20
2019-03-25T00:57:09.034Z,2.33
2019-03-25T00:58:09.006Z,2.43
2019-03-25T00:59:09.004Z,2.38
2019-03-25T01:00:08.980Z,2.43
2019-03-25T01:01:08.972Z,2.42
2019-03-25T01:02:09.034Z,2.47
2019-03-25T01:03:09.022Z,2.51
2019-03-25T01:04:08.946Z,2.56
2019-03-25T01:05:08.928Z,2.62
2019-03-25T01:06:08.918Z,2.68
2019-03-25T01:07:08.924Z,2.71
2019-03-25T01:08:08.933Z,2.85
2019-03-25T01:09:08.889Z,2.92
2019-03-25T01:10:08.880Z,2.90
2019-03-25T01:11:08.943Z,3.01
2019-03-25T01:12:08.894Z,3.08
2019-03-25T01:13:08.839Z,3.13
2019-03-25T01:14:08.830Z,3.21
2019-03-25T01:15:08.836Z,3.22
2019-03-25T01:16:08.840Z,3.21
2019-03-25T01:17:08.828Z,3.19
2019-03-25T01:18:16.873Z,3.23
2019-03-25T01:19:09.778Z,3.32
2019-03-25T01:20:08.870Z,3.42
2019-03-25T01:21:08.758Z,3.48
2019-03-25T01:22:08.743Z,3.40
2019-03-25T01:23:08.747Z,3.62
2019-03-25T01:24:08.723Z,3.59
2019-03-25T01:25:08.743Z,3.59
2019-03-25T01:26:08.717Z,3.41
2019-03-25T01:27:08.698Z,3.50
2019-03-25T01:28:08.679Z,3.60
2019-03-25T01:29:08.689Z,3.63
2019-03-25T01:30:08.659Z,3.56
2019-03-25T01:31:08.712Z,3.63
2019-03-25T01:32:08.641Z,3.81
2019-03-25T01:33:08.627Z,3.65
2019-03-25T01:34:08.619Z,3.68
2019-03-25T01:35:08.635Z,3.73
2019-03-25T01:36:08.595Z,3.83
2019-03-25T01:37:08.597Z,3.84
2019-03-25T01:38:08.615Z,3.77
2019-03-25T01:39:08.566Z,3.73
2019-03-25T01:40:08.557Z,3.80
2019-03-25T01:41:08.570Z,3.66
2019-03-25T01:42:11.164Z,3.68
2019-03-25T01:43:08.561Z,3.66
2019-03-25T01:44:08.567Z,3.66
2019-03-25T01:45:08.509Z,3.66
2019-03-25T01:46:08.495Z,3.69
2019-03-25T01:47:08.480Z,3.62
2019-03-25T01:48:08.489Z,3.68
2019-03-25T01:49:08.460Z,3.81
2019-03-25T01:50:08.484Z,3.87
2019-03-25T01:51:08.437Z,3.91
2019-03-25T01:52:08.429Z,3.98
2019-03-25T01:53:08.528Z,3.99
2019-03-25T01:54:08.416Z,3.99
2019-03-25T01:55:13.546Z,4.02
2019-03-25T01:56:09.386Z,4.05
2019-03-25T01:57:08.393Z,4.05
2019-03-25T01:58:08.436Z,4.08
2019-03-25T01:59:08.357Z,4.06
2019-03-25T02:00:08.357Z,4.19
2019-03-25T02:01:08.341Z,4.19
2019-03-25T02:02:08.328Z,4.16
2019-03-25T02:03:08.309Z,4.17
2019-03-25T02:04:08.315Z,4.19
2019-03-25T02:05:08.329Z,4.23
2019-03-25T02:06:08.284Z,4.24
2019-03-25T02:07:08.274Z,4.17
2019-03-25T02:08:08.258Z,4.23
2019-03-25T02:09:08.261Z,4.26
2019-03-25T02:10:08.255Z,4.28
2019-03-25T02:11:08.250Z,4.23
2019-03-25T02:12:08.214Z,4.16
2019-03-25T02:13:08.210Z,4.31
2019-03-25T02:14:08.195Z,4.23
2019-03-25T02:15:08.188Z,4.22
2019-03-25T02:16:08.191Z,4.22
2019-03-25T02:17:08.186Z,4.24
2019-03-25T02:18:08.161Z,4.24
2019-03-25T02:19:08.142Z,4.22
2019-03-25T02:20:08.177Z,4.26
2019-03-25T02:21:08.121Z,4.26
2019-03-25T02:22:08.126Z,4.30
2019-03-25T02:23:08.312Z,4.24
2019-03-25T02:24:08.100Z,4.26
2019-03-25T02:25:08.099Z,4.30
2019-03-25T02:26:08.067Z,4.28
2019-03-25T02:27:08.058Z,4.26
2019-03-25T02:28:08.074Z,4.30
2019-03-25T02:29:08.036Z,4.28
2019-03-25T02:30:08.030Z,4.17
2019-03-25T02:31:08.016Z,4.19
2019-03-25T02:32:08.063Z,4.23
2019-03-25T02:33:08.009Z,4.22
2019-03-25T02:34:08.007Z,4.24
2019-03-25T02:35:07.973Z,4.26
2019-03-25T02:36:07.960Z,4.24
2019-03-25T02:37:07.954Z,4.26
2019-03-25T02:38:07.942Z,4.23
2019-03-25T02:39:07.972Z,4.30
2019-03-25T02:40:07.943Z,4.23
2019-03-25T02:41:07.932Z,4.26
2019-03-25T02:42:07.896Z,4.30
2019-03-25T02:43:07.907Z,4.23
2019-03-25T02:44:07.910Z,4.22
2019-03-25T02:45:07.882Z,4.19
2019-03-25T02:46:07.866Z,4.19
2019-03-25T02:47:07.882Z,4.14
2019-03-25T02:48:07.849Z,4.13
2019-03-25T02:49:07.821Z,4.06
2019-03-25T02:50:07.830Z,4.05
2019-03-25T02:51:07.841Z,4.05
2019-03-25T02:52:07.791Z,4.04
2019-03-25T02:53:07.780Z,4.05
2019-03-25T02:54:07.792Z,4.08
2019-03-25T02:55:07.766Z,4.12
2019-03-25T02:56:07.809Z,4.05
2019-03-25T02:57:07.778Z,4.12
2019-03-25T02:58:07.731Z,4.06
2019-03-25T02:59:07.718Z,4.05
2019-03-25T03:00:07.728Z,4.08
2019-03-25T03:01:07.704Z,4.10
2019-03-25T03:02:07.685Z,4.06
2019-03-25T03:03:07.743Z,4.02
2019-03-25T03:04:07.665Z,4.05
2019-03-25T03:05:07.653Z,4.12
2019-03-25T03:06:07.659Z,4.14
2019-03-25T03:07:07.634Z,4.12
2019-03-25T03:08:07.638Z,4.14
2019-03-25T03:09:07.636Z,4.10
2019-03-25T03:10:07.658Z,4.14
2019-03-25T03:11:07.600Z,4.10
2019-03-25T03:12:07.589Z,4.14
2019-03-25T03:13:07.579Z,4.13
2019-03-25T03:14:07.568Z,4.13
2019-03-25T03:15:07.568Z,4.19
2019-03-25T03:16:07.595Z,4.14
2019-03-25T03:17:07.580Z,4.16
2019-03-25T03:18:07.520Z,4.17
2019-03-25T03:19:07.523Z,4.23
2019-03-25T03:20:07.506Z,4.26
2019-03-25T03:21:07.488Z,4.24
2019-03-25T03:22:07.540Z,4.26
2019-03-25T03:23:07.483Z,4.22
2019-03-25T03:24:07.480Z,4.19
2019-03-25T03:25:07.448Z,4.24
2019-03-25T03:26:07.442Z,4.22
2019-03-25T03:27:07.431Z,4.30
2019-03-25T03:28:07.445Z,4.28
2019-03-25T03:29:07.414Z,4.22
2019-03-25T03:30:07.423Z,4.24
2019-03-25T03:31:07.393Z,4.28
2019-03-25T03:32:07.395Z,4.24
2019-03-25T03:33:07.366Z,4.20
2019-03-25T03:34:07.357Z,4.24
2019-03-25T03:35:07.384Z,4.22
2019-03-25T03:36:07.342Z,4.24
2019-03-25T03:37:07.323Z,4.28
2019-03-25T03:38:07.310Z,4.23
2019-03-25T03:39:07.316Z,4.26
2019-03-25T03:40:07.291Z,4.24
2019-03-25T03:41:07.318Z,4.26
2019-03-25T03:42:07.267Z,4.32
2019-03-25T03:43:07.256Z,4.30
2019-03-25T03:44:07.247Z,4.24
2019-03-25T03:45:07.277Z,4.32
2019-03-25T03:46:07.237Z,4.34
2019-03-25T03:47:07.239Z,4.48
2019-03-25T03:48:07.203Z,4.41
2019-03-25T03:49:07.221Z,4.44
2019-03-25T03:50:07.180Z,4.48
2019-03-25T03:51:07.175Z,4.48
2019-03-25T03:52:07.183Z,4.49
2019-03-25T03:53:07.158Z,4.52
2019-03-25T03:54:07.206Z,4.52
2019-03-25T03:55:07.125Z,4.52
2019-03-25T03:56:13.663Z,4.48
2019-03-25T03:57:08.112Z,4.55
2019-03-25T03:58:07.098Z,4.50
2019-03-25T03:59:07.113Z,4.52
2019-03-25T04:00:07.080Z,4.49
2019-03-25T04:01:07.086Z,4.50
2019-03-25T04:02:07.054Z,4.50
2019-03-25T04:03:07.051Z,4.60
2019-03-25T04:04:07.071Z,4.48
2019-03-25T04:05:07.022Z,4.59
2019-03-25T04:06:07.012Z,4.50
2019-03-25T04:07:06.999Z,4.55
2019-03-25T04:08:07.033Z,4.60
2019-03-25T04:09:06.986Z,4.62
2019-03-25T04:10:06.983Z,4.55
2019-03-25T04:11:06.957Z,4.58
2019-03-25T04:12:06.951Z,4.66
2019-03-25T04:13:06.938Z,4.66
2019-03-25T04:14:06.975Z,4.67
2019-03-25T04:15:06.919Z,4.70
2019-03-25T04:16:06.903Z,4.68
2019-03-25T04:17:06.902Z,4.78
2019-03-25T04:18:06.900Z,4.67
2019-03-25T04:19:06.908Z,4.59
2019-03-25T04:20:06.911Z,4.70
2019-03-25T04:21:06.857Z,4.75
2019-03-25T04:22:06.838Z,4.67
2019-03-25T04:23:06.845Z,4.73
2019-03-25T04:24:06.815Z,4.78
2019-03-25T04:25:06.825Z,4.75
2019-03-25T04:26:06.847Z,4.71
2019-03-25T04:27:06.830Z,4.73
2019-03-25T04:28:06.781Z,4.84
2019-03-25T04:29:06.766Z,4.77
2019-03-25T04:30:06.775Z,4.74
2019-03-25T04:31:06.752Z,4.74
2019-03-25T04:32:06.744Z,4.73
2019-03-25T04:33:06.731Z,4.77
2019-03-25T04:34:06.747Z,4.77
2019-03-25T04:35:06.755Z,4.75
2019-03-25T04:36:06.698Z,4.78
2019-03-25T04:37:06.678Z,4.77
2019-03-25T04:38:06.680Z,4.71
2019-03-25T04:39:06.662Z,4.78
2019-03-25T04:40:06.669Z,4.77
2019-03-25T04:41:06.669Z,4.66
2019-03-25T04:42:06.759Z,4.62
2019-03-25T04:43:06.618Z,4.75
2019-03-25T04:44:06.611Z,4.67
2019-03-25T04:45:06.598Z,4.75
2019-03-25T04:46:06.605Z,4.63
2019-03-25T04:47:06.572Z,4.71
2019-03-25T04:48:06.603Z,4.75
2019-03-25T04:49:06.578Z,4.78
2019-03-25T04:50:06.541Z,4.75
2019-03-25T04:51:06.533Z,4.75
2019-03-25T04:52:06.540Z,4.74
2019-03-25T04:53:06.508Z,4.66
2019-03-25T04:54:06.577Z,4.75
2019-03-25T04:55:06.501Z,4.74
2019-03-25T04:56:06.481Z,4.74
2019-03-25T04:57:06.464Z,4.63
2019-03-25T04:58:06.454Z,4.70
2019-03-25T04:59:06.445Z,4.74
2019-03-25T05:00:06.477Z,4.68
2019-03-25T05:01:06.428Z,4.71
2019-03-25T05:02:06.415Z,4.75
2019-03-25T05:03:06.616Z,4.77
2019-03-25T05:04:06.394Z,4.74
2019-03-25T05:05:06.385Z,4.80
2019-03-25T05:06:06.401Z,4.82
2019-03-25T05:07:06.422Z,4.77
2019-03-25T05:08:06.349Z,4.74
2019-03-25T05:09:06.342Z,4.84
2019-03-25T05:10:06.328Z,4.80
2019-03-25T05:11:06.330Z,4.78
2019-03-25T05:12:06.331Z,4.86
2019-03-25T05:13:06.341Z,4.77
2019-03-25T05:14:06.315Z,4.82
2019-03-25T05:15:06.274Z,4.82
2019-03-25T05:16:06.269Z,4.84
2019-03-25T05:17:06.261Z,4.78
2019-03-25T05:18:06.270Z,4.78
2019-03-25T05:19:06.240Z,4.87
2019-03-25T05:20:06.246Z,4.84
2019-03-25T05:21:06.218Z,4.75
2019-03-25T05:22:06.200Z,4.82
2019-03-25T05:23:06.192Z,4.78
2019-03-25T05:24:06.532Z,4.80
2019-03-25T05:25:06.173Z,4.77
2019-03-25T05:26:06.156Z,4.75
2019-03-25T05:27:06.211Z,4.80
2019-03-25T05:28:06.139Z,4.82
2019-03-25T05:29:06.124Z,4.78
2019-03-25T05:30:06.134Z,4.78
2019-03-25T05:31:06.121Z,4.86
2019-03-25T05:32:06.094Z,4.87
2019-03-25T05:33:06.103Z,4.82
2019-03-25T05:34:06.105Z,4.89
2019-03-25T05:35:06.089Z,4.84
2019-03-25T05:36:06.104Z,4.89
2019-03-25T05:37:06.047Z,4.89
2019-03-25T05:38:06.035Z,4.93
2019-03-25T05:39:06.027Z,4.86
2019-03-25T05:40:06.017Z,4.90
2019-03-25T05:41:06.014Z,4.90
2019-03-25T05:42:05.988Z,4.93
2019-03-25T05:43:05.981Z,4.87
2019-03-25T05:44:05.994Z,4.82
2019-03-25T05:45:05.976Z,4.82
2019-03-25T05:46:05.976Z,4.82
2019-03-25T05:47:05.953Z,4.82
2019-03-25T05:48:05.921Z,4.75
2019-03-25T05:49:05.914Z,4.89
2019-03-25T05:50:05.901Z,4.86
2019-03-25T05:51:05.932Z,4.87
2019-03-25T05:52:05.879Z,4.89
2019-03-25T05:53:05.877Z,4.75
2019-03-25T05:54:05.859Z,4.84
2019-03-25T05:55:05.847Z,4.82
2019-03-25T05:56:05.837Z,4.84
2019-03-25T05:57:05.863Z,4.78
2019-03-25T05:58:05.831Z,4.80
2019-03-25T05:59:05.847Z,4.86
2019-03-25T06:00:05.796Z,4.82
2019-03-25T06:01:05.849Z,4.73
2019-03-25T06:02:05.775Z,4.75
2019-03-25T06:03:05.777Z,4.74
2019-03-25T06:04:05.753Z,4.70
2019-03-25T06:05:05.771Z,4.68
2019-03-25T06:06:05.731Z,4.70
2019-03-25T06:07:05.739Z,4.63
2019-03-25T06:08:05.710Z,4.58
2019-03-25T06:09:05.726Z,4.63
2019-03-25T06:10:05.689Z,4.74
2019-03-25T06:11:05.680Z,4.70
2019-03-25T06:12:05.728Z,4.63
2019-03-25T06:13:05.657Z,4.66
2019-03-25T06:14:05.647Z,4.80
2019-03-25T06:15:05.638Z,4.78
2019-03-25T06:16:05.636Z,4.66
2019-03-25T06:17:05.619Z,4.77
2019-03-25T06:18:05.629Z,4.80
2019-03-25T06:19:05.707Z,4.73
2019-03-25T06:20:05.591Z,4.80
2019-03-25T06:21:05.592Z,4.68
2019-03-25T06:22:05.567Z,4.80
2019-03-25T06:23:05.649Z,4.74
2019-03-25T06:24:05.585Z,4.82
2019-03-25T06:25:05.536Z,4.82
2019-03-25T06:26:05.538Z,4.82
2019-03-25T06:27:13.588Z,4.77
2019-03-25T06:28:06.563Z,4.92
2019-03-25T06:29:05.512Z,4.87
2019-03-25T06:30:05.511Z,4.94
2019-03-25T06:31:05.465Z,4.90
2019-03-25T06:32:05.495Z,5.04
2019-03-25T06:33:12.304Z,5.02
2019-03-25T06:34:06.441Z,4.94
2019-03-25T06:35:05.500Z,5.07
2019-03-25T06:36:05.482Z,5.10
2019-03-25T06:37:05.433Z,5.15
2019-03-25T06:38:05.427Z,5.15
2019-03-25T06:39:05.397Z,5.18
2019-03-25T06:40:05.384Z,5.18
2019-03-25T06:41:05.390Z,5.17
2019-03-25T06:42:05.370Z,5.15
2019-03-25T06:43:05.345Z,5.18
2019-03-25T06:44:05.439Z,5.18
2019-03-25T06:45:05.318Z,5.21
2019-03-25T06:46:05.307Z,5.21
2019-03-25T06:47:05.318Z,5.20
2019-03-25T06:48:05.289Z,5.15
2019-03-25T06:49:05.293Z,5.28
2019-03-25T06:50:05.271Z,5.29
2019-03-25T06:51:05.260Z,5.17
2019-03-25T06:52:05.288Z,5.17
2019-03-25T06:53:05.274Z,5.17
2019-03-25T06:54:05.248Z,5.08
2019-03-25T06:55:05.265Z,5.14
2019-03-25T06:56:05.199Z,5.08
2019-03-25T06:57:05.269Z,5.08
2019-03-25T06:58:05.199Z,5.04
2019-03-25T06:59:05.168Z,4.96
2019-03-25T07:00:05.155Z,4.93
2019-03-25T07:01:05.168Z,4.94
2019-03-25T07:02:05.185Z,4.92
2019-03-25T07:03:05.126Z,4.97
2019-03-25T07:04:05.116Z,5.11
2019-03-25T07:05:05.104Z,5.20
2019-03-25T07:06:05.098Z,5.32
2019-03-25T07:07:05.085Z,5.30
2019-03-25T07:08:05.148Z,5.30
2019-03-25T07:09:05.286Z,5.28
2019-03-25T07:10:05.050Z,5.25
2019-03-25T07:11:05.039Z,5.25
2019-03-25T07:12:05.052Z,5.32
2019-03-25T07:13:05.018Z,5.33
2019-03-25T07:14:05.008Z,5.30
2019-03-25T07:15:05.015Z,5.38
2019-03-25T07:16:04.994Z,5.36
2019-03-25T07:17:04.985Z,5.25
2019-03-25T07:18:05.012Z,5.28
2019-03-25T07:19:04.985Z,5.28
2019-03-25T07:20:04.947Z,5.26
2019-03-25T07:21:04.934Z,5.28
2019-03-25T07:22:04.924Z,5.32
2019-03-25T07:23:04.935Z,5.21
2019-03-25T07:24:04.907Z,5.25
2019-03-25T07:25:05.044Z,5.17
2019-03-25T07:26:04.931Z,5.15
2019-03-25T07:27:04.888Z,5.20
2019-03-25T07:28:04.893Z,5.17
2019-03-25T07:29:04.897Z,5.10
2019-03-25T07:30:05.037Z,5.08
2019-03-25T07:31:04.838Z,5.11
2019-03-25T07:32:04.844Z,5.05
2019-03-25T07:33:04.811Z,5.10
2019-03-25T07:34:04.916Z,5.07
2019-03-25T07:35:04.849Z,5.10
2019-03-25T07:36:04.774Z,5.08
2019-03-25T07:37:04.780Z,5.15
2019-03-25T07:38:04.781Z,5.20
2019-03-25T07:39:04.749Z,5.25
2019-03-25T07:40:04.751Z,5.26
2019-03-25T07:41:04.725Z,5.29
2019-03-25T07:42:04.713Z,5.26
2019-03-25T07:43:04.744Z,5.33
2019-03-25T07:44:04.697Z,5.30
2019-03-25T07:45:04.718Z,5.35
2019-03-25T07:46:04.665Z,5.36
2019-03-25T07:47:04.660Z,5.36
2019-03-25T07:48:04.682Z,5.41
2019-03-25T07:49:04.638Z,5.41
2019-03-25T07:50:04.625Z,5.48
2019-03-25T07:51:04.692Z,5.54
2019-03-25T07:52:06.989Z,5.50
2019-03-25T07:53:04.610Z,5.46
2019-03-25T07:54:04.591Z,5.50
2019-03-25T07:55:04.576Z,5.47
2019-03-25T07:56:04.572Z,5.50
2019-03-25T07:57:04.600Z,5.43
2019-03-25T07:58:04.540Z,5.47
2019-03-25T07:59:04.555Z,5.47
2019-03-25T08:00:13.169Z,5.51
2019-03-25T08:01:05.511Z,5.59
2019-03-25T08:02:04.498Z,5.61
2019-03-25T08:03:04.527Z,5.64
2019-03-25T08:04:04.489Z,5.61
2019-03-25T08:05:04.487Z,5.47
2019-03-25T08:06:04.488Z,5.51
2019-03-25T08:07:04.481Z,5.47
2019-03-25T08:08:04.463Z,5.54
2019-03-25T08:09:04.427Z,5.50
2019-03-25T08:10:04.434Z,5.46
2019-03-25T08:11:04.491Z,5.56
2019-03-25T08:12:04.424Z,5.56
2019-03-25T08:13:04.563Z,5.64
2019-03-25T08:14:04.425Z,5.59
2019-03-25T08:15:04.361Z,5.68
2019-03-25T08:16:04.357Z,5.75
2019-03-25T08:17:04.368Z,5.69
2019-03-25T08:18:04.355Z,5.82
2019-03-25T08:19:04.364Z,5.84
2019-03-25T08:20:04.314Z,5.75
2019-03-25T08:21:04.300Z,5.80
2019-03-25T08:22:04.287Z,5.76
2019-03-25T08:23:04.301Z,5.79
2019-03-25T08:24:04.272Z,5.79
2019-03-25T08:25:04.297Z,5.79
2019-03-25T08:26:04.246Z,5.93
2019-03-25T08:27:04.237Z,5.94
2019-03-25T08:28:04.224Z,5.94
2019-03-25T08:29:04.231Z,5.93
2019-03-25T08:30:04.202Z,5.97
2019-03-25T08:31:04.209Z,5.93
2019-03-25T08:32:04.207Z,6.07
2019-03-25T08:33:04.282Z,6.02
2019-03-25T08:34:04.163Z,6.16
2019-03-25T08:35:04.152Z,6.11
2019-03-25T08:36:04.150Z,6.20
2019-03-25T08:37:04.469Z,6.19
2019-03-25T08:38:04.158Z,6.30
2019-03-25T08:39:04.128Z,6.52
2019-03-25T08:40:04.100Z,6.51
2019-03-25T08:41:04.085Z,6.41
2019-03-25T08:42:04.075Z,6.51
2019-03-25T08:43:04.082Z,6.27
2019-03-25T08:44:04.052Z,6.28
2019-03-25T08:45:04.051Z,6.09
2019-03-25T08:46:04.037Z,6.05
2019-03-25T08:47:04.030Z,6.11
2019-03-25T08:48:04.015Z,6.26
2019-03-25T08:49:04.016Z,6.16
2019-03-25T08:50:03.992Z,6.14
2019-03-25T08:51:03.983Z,6.12
2019-03-25T08:52:03.992Z,6.07
2019-03-25T08:53:03.958Z,6.04
2019-03-25T08:54:03.945Z,6.09
2019-03-25T08:55:03.958Z,5.94
2019-03-25T08:56:03.924Z,5.94
2019-03-25T08:57:03.912Z,5.80
2019-03-25T08:58:11.980Z,5.72
2019-03-25T08:59:04.905Z,5.61
2019-03-25T09:00:03.882Z,5.61
2019-03-25T09:01:03.889Z,5.61
2019-03-25T09:02:03.859Z,5.56
2019-03-25T09:03:03.849Z,5.64
2019-03-25T09:04:03.842Z,5.59
2019-03-25T09:05:03.868Z,5.61
2019-03-25T09:06:03.817Z,5.47
2019-03-25T09:07:03.828Z,5.41
2019-03-25T09:08:03.796Z,5.51
2019-03-25T09:09:03.785Z,5.47
2019-03-25T09:10:03.775Z,5.48
2019-03-25T09:11:03.798Z,5.39
2019-03-25T09:12:03.756Z,5.46
2019-03-25T09:13:03.775Z,5.35
2019-03-25T09:14:03.750Z,5.30
2019-03-25T09:15:03.731Z,5.20
2019-03-25T09:16:03.739Z,5.17
2019-03-25T09:17:03.751Z,5.07
2019-03-25T09:18:03.694Z,5.12
2019-03-25T09:19:03.770Z,5.02
2019-03-25T09:20:03.685Z,5.08
2019-03-25T09:21:03.752Z,5.02
2019-03-25T09:22:03.664Z,4.96
2019-03-25T09:23:03.641Z,5.08
2019-03-25T09:24:03.674Z,5.07
2019-03-25T09:25:03.637Z,5.02
2019-03-25T09:26:03.604Z,4.93
2019-03-25T09:27:03.613Z,4.92
2019-03-25T09:28:03.585Z,4.87
2019-03-25T09:29:03.580Z,4.75
2019-03-25T09:30:03.817Z,4.77
2019-03-25T09:31:03.552Z,4.75
2019-03-25T09:32:03.559Z,4.78
2019-03-25T09:33:05.360Z,4.78
2019-03-25T09:34:03.520Z,4.78
2019-03-25T09:35:04.308Z,4.82
2019-03-25T09:36:03.659Z,4.84
2019-03-25T09:37:03.511Z,4.84
2019-03-25T09:38:03.505Z,4.87
2019-03-25T09:39:03.466Z,4.89
2019-03-25T09:40:03.458Z,4.89
2019-03-25T09:41:03.445Z,4.96
2019-03-25T09:42:03.815Z,4.99
2019-03-25T09:43:03.456Z,5.10
2019-03-25T09:44:03.837Z,5.28
2019-03-25T09:45:03.448Z,5.44
2019-03-25T09:46:03.396Z,5.54
2019-03-25T09:47:03.417Z,5.38
2019-03-25T09:48:03.405Z,5.79
2019-03-25T09:49:03.817Z,6.52
2019-03-25T09:50:04.317Z,6.99
2019-03-25T09:51:03.339Z,7.03
2019-03-25T09:52:04.327Z,6.88
2019-03-25T09:53:03.332Z,7.14
2019-03-25T09:54:03.341Z,7.02
2019-03-25T09:55:03.333Z,6.77
2019-03-25T09:56:03.811Z,7.56
2019-03-25T09:57:03.350Z,8.05
2019-03-25T09:58:03.302Z,8.38
2019-03-25T09:59:03.271Z,8.00
2019-03-25T10:00:03.245Z,8.03
2019-03-25T10:01:03.234Z,8.63
2019-03-25T10:02:03.227Z,8.24
2019-03-25T10:03:03.225Z,8.44
2019-03-25T10:04:03.217Z,8.73
2019-03-25T10:05:03.210Z,8.33
2019-03-25T10:06:03.187Z,8.67
2019-03-25T10:07:03.178Z,9.28
2019-03-25T10:08:03.165Z,9.06
2019-03-25T10:09:03.156Z,9.54
2019-03-25T10:10:03.193Z,9.37
2019-03-25T10:11:03.139Z,9.47
2019-03-25T10:12:03.149Z,9.11
2019-03-25T10:13:03.132Z,8.49
2019-03-25T10:14:03.175Z,8.03
2019-03-25T10:15:03.086Z,7.85
2019-03-25T10:16:03.135Z,7.97
2019-03-25T10:17:03.066Z,7.83
2019-03-25T10:18:03.083Z,7.73
2019-03-25T10:19:03.048Z,7.56
2019-03-25T10:20:03.337Z,7.18
2019-03-25T10:21:03.019Z,7.11
2019-03-25T10:22:03.018Z,7.38
2019-03-25T10:23:03.001Z,7.45
2019-03-25T10:24:03.026Z,7.39
2019-03-25T10:25:03.009Z,7.60
2019-03-25T10:26:02.983Z,8.45
2019-03-25T10:27:02.954Z,8.42
2019-03-25T10:28:02.957Z,8.12
2019-03-25T10:29:03.005Z,7.70
2019-03-25T10:30:03.011Z,7.40
2019-03-25T10:31:02.915Z,7.43
2019-03-25T10:32:02.916Z,7.43
2019-03-25T10:33:02.893Z,7.38
2019-03-25T10:34:02.887Z,7.35
2019-03-25T10:35:02.890Z,7.43
2019-03-25T10:36:02.941Z,7.29
2019-03-25T10:37:02.859Z,7.11
2019-03-25T10:38:02.910Z,7.02
2019-03-25T10:39:02.827Z,6.96
2019-03-25T10:40:03.033Z,6.82
2019-03-25T10:41:02.825Z,6.64
2019-03-25T10:42:02.809Z,6.46
2019-03-25T10:43:02.784Z,6.20
2019-03-25T10:44:02.816Z,6.07
2019-03-25T10:45:02.764Z,5.93
2019-03-25T10:46:02.751Z,5.71
2019-03-25T10:47:02.762Z,5.72
2019-03-25T10:48:02.733Z,5.75
2019-03-25T10:49:02.718Z,5.97
2019-03-25T10:50:02.716Z,6.52
2019-03-25T10:51:02.704Z,6.88
2019-03-25T10:52:02.706Z,7.18
2019-03-25T10:53:02.692Z,7.63
2019-03-25T10:54:02.667Z,7.56
2019-03-25T10:55:02.673Z,7.83
2019-03-25T10:56:02.646Z,7.85
2019-03-25T10:57:02.633Z,7.93
2019-03-25T10:58:02.646Z,8.12
2019-03-25T10:59:02.622Z,8.05
2019-03-25T11:00:02.619Z,8.37
2019-03-25T11:01:02.630Z,8.64
2019-03-25T11:02:02.582Z,8.73
2019-03-25T11:03:02.592Z,8.64
2019-03-25T11:04:02.573Z,8.03
2019-03-25T11:05:02.569Z,8.10
2019-03-25T11:06:02.542Z,8.34
2019-03-25T11:07:02.539Z,8.12
2019-03-25T11:08:02.550Z,8.34
2019-03-25T11:09:02.513Z,8.15
2019-03-25T11:10:02.535Z,8.01
2019-03-25T11:11:03.565Z,7.73
2019-03-25T11:12:02.475Z,7.66
2019-03-25T11:13:02.461Z,7.47
2019-03-25T11:14:02.452Z,7.32
2019-03-25T11:15:02.451Z,7.13
2019-03-25T11:16:02.430Z,7.02
2019-03-25T11:17:02.439Z,6.75
2019-03-25T11:18:02.408Z,6.75
2019-03-25T11:19:02.402Z,6.63
2019-03-25T11:20:02.392Z,6.45
2019-03-25T11:21:02.393Z,6.44
2019-03-25T11:22:02.382Z,6.41
2019-03-25T11:23:02.874Z,6.44
2019-03-25T11:24:02.355Z,6.39
2019-03-25T11:25:02.335Z,6.49
2019-03-25T11:26:02.339Z,6.54
2019-03-25T11:27:02.310Z,6.67
2019-03-25T11:28:02.307Z,6.54
2019-03-25T11:29:08.367Z,6.64
2019-03-25T11:30:05.567Z,6.70
2019-03-25T11:31:02.269Z,6.72
2019-03-25T11:32:02.330Z,6.77
2019-03-25T11:33:02.247Z,6.97
2019-03-25T11:34:02.235Z,7.03
2019-03-25T11:35:02.229Z,7.21
2019-03-25T11:36:02.880Z,7.33
2019-03-25T11:37:02.217Z,7.51
2019-03-25T11:38:02.386Z,7.61
2019-03-25T11:39:02.182Z,7.90
2019-03-25T11:40:02.201Z,8.03
2019-03-25T11:41:03.820Z,7.82
2019-03-25T11:42:02.207Z,8.08
2019-03-25T11:43:02.154Z,8.23
2019-03-25T11:44:02.160Z,8.15
2019-03-25T11:45:03.872Z,8.41
2019-03-25T11:46:02.126Z,8.18
2019-03-25T11:47:02.095Z,8.13
2019-03-25T11:48:02.087Z,8.27
2019-03-25T11:49:02.073Z,8.37
2019-03-25T11:50:02.117Z,8.31
2019-03-25T11:51:02.075Z,8.30
2019-03-25T11:52:02.132Z,8.08
2019-03-25T11:53:02.027Z,8.09
2019-03-25T11:54:02.037Z,8.13
2019-03-25T11:55:02.011Z,8.24
2019-03-25T11:56:02.002Z,8.44
2019-03-25T11:57:02.052Z,8.45
2019-03-25T11:58:02.001Z,8.45
2019-03-25T11:59:03.120Z,8.46
2019-03-25T12:00:01.959Z,8.31
2019-03-25T12:01:01.956Z,8.36
2019-03-25T12:02:01.951Z,8.26
2019-03-25T12:03:01.983Z,8.23
2019-03-25T12:04:01.957Z,8.38
2019-03-25T12:05:01.914Z,8.31
2019-03-25T12:06:01.926Z,8.13
2019-03-25T12:07:01.882Z,8.00
2019-03-25T12:08:01.889Z,7.90
2019-03-25T12:09:01.859Z,7.95
2019-03-25T12:10:01.916Z,7.97
2019-03-25T12:11:01.837Z,7.98
2019-03-25T12:12:01.893Z,8.30
2019-03-25T12:13:01.822Z,8.45
2019-03-25T12:14:01.824Z,8.49
2019-03-25T12:15:02.053Z,8.33
2019-03-25T12:16:01.817Z,8.36
2019-03-25T12:17:01.772Z,8.44
2019-03-25T12:18:01.776Z,8.48
2019-03-25T12:19:01.750Z,8.49
2019-03-25T12:20:01.757Z,8.28
2019-03-25T12:21:02.377Z,8.30
2019-03-25T12:22:02.316Z,8.28
2019-03-25T12:23:01.767Z,8.26
2019-03-25T12:24:01.699Z,8.13
2019-03-25T12:25:01.689Z,8.09
2019-03-25T12:26:02.022Z,8.23
2019-03-25T12:27:01.676Z,8.24
2019-03-25T12:28:01.682Z,8.19
2019-03-25T12:29:02.312Z,8.26
2019-03-25T12:30:01.718Z,8.15
2019-03-25T12:31:01.640Z,8.08
2019-03-25T12:32:01.632Z,7.97
2019-03-25T12:33:04.313Z,8.05
2019-03-25T12:34:01.606Z,8.24
2019-03-25T12:35:02.317Z,8.37
2019-03-25T12:36:01.567Z,8.44
2019-03-25T12:37:01.557Z,8.36
2019-03-25T12:38:01.569Z,8.26
2019-03-25T12:39:02.361Z,8.18
2019-03-25T12:40:01.575Z,8.15
2019-03-25T12:41:01.576Z,8.03
2019-03-25T12:42:01.502Z,7.95
2019-03-25T12:43:01.508Z,7.66
2019-03-25T12:44:01.481Z,7.80
2019-03-25T12:45:01.473Z,7.98
2019-03-25T12:46:01.480Z,8.45
2019-03-25T12:47:02.358Z,8.74
2019-03-25T12:48:01.454Z,8.92
2019-03-25T12:49:01.487Z,8.91
2019-03-25T12:50:01.467Z,8.89
2019-03-25T12:51:01.464Z,8.82
2019-03-25T12:52:01.414Z,8.64
2019-03-25T12:53:01.384Z,8.36
2019-03-25T12:54:01.396Z,8.34
2019-03-25T12:55:01.367Z,8.15
2019-03-25T12:56:01.361Z,8.09
2019-03-25T12:57:01.401Z,8.01
2019-03-25T12:58:01.353Z,8.03
2019-03-25T12:59:01.341Z,8.00
2019-03-25T13:00:01.410Z,7.91
2019-03-25T13:01:01.823Z,7.83
2019-03-25T13:02:01.868Z,7.75
2019-03-25T13:03:01.343Z,7.75
2019-03-25T13:04:01.837Z,7.75
2019-03-25T13:05:01.282Z,7.77
2019-03-25T13:06:01.323Z,7.79
2019-03-25T13:07:01.864Z,7.87
2019-03-25T13:08:01.449Z,7.97
2019-03-25T13:09:01.919Z,8.00
2019-03-25T13:10:01.222Z,7.95
2019-03-25T13:11:01.203Z,8.10
2019-03-25T13:12:01.202Z,8.19
2019-03-25T13:13:01.226Z,8.28
2019-03-25T13:14:01.165Z,8.37
2019-03-25T13:15:01.272Z,8.34
2019-03-25T13:16:01.147Z,8.60
2019-03-25T13:17:01.130Z,8.79
2019-03-25T13:18:01.346Z,8.88